Time;durP1;ratioP1;P1;durP2;ratioP2;P2;SDS_P1;SDS_P2;PMS_P1;PMS_P2;Temp;Humidity;BMP_temperature;BMP_pressure;BME280_temperature;BME280_humidity;BME280_pressure;Samples;Min_cycle;Max_cycle;Signal;HPM_P1;HPM_P2
2023/05/31 00:02:16;;;;;;;0.90;0.90;;;;;;;10.52;100.00;101449.50;4974740;28;20206;-74
2023/05/31 00:04:41;;;;;;;1.80;1.20;;;;;;;10.41;100.00;101451.53;4975294;28;20248;-74
2023/05/31 00:07:07;;;;;;;0.43;0.43;;;;;;;10.31;100.00;101445.31;4957247;28;20182;-75
2023/05/31 00:09:32;;;;;;;0.37;0.37;;;;;;;10.18;100.00;101452.19;4974217;28;20186;-75
2023/05/31 00:11:57;;;;;;;1.00;1.00;;;;;;;10.16;100.00;101453.59;4974459;28;20213;-75
2023/05/31 00:14:23;;;;;;;0.53;0.53;;;;;;;10.18;100.00;101448.66;4974410;28;20185;-75
2023/05/31 00:16:48;;;;;;;0.60;0.60;;;;;;;10.19;100.00;101450.28;4974698;28;20264;-75
2023/05/31 00:19:14;;;;;;;0.13;0.13;;;;;;;10.25;100.00;101446.44;4974224;28;20683;-74
2023/05/31 00:21:39;;;;;;;0.57;0.57;;;;;;;10.16;100.00;101459.06;4974207;28;20177;-72
2023/05/31 00:24:05;;;;;;;2.77;2.00;;;;;;;9.99;100.00;101454.78;4974533;28;20336;-74
2023/05/31 00:26:30;;;;;;;1.03;1.03;;;;;;;10.00;100.00;101456.41;4973938;28;20259;-75
2023/05/31 00:28:55;;;;;;;0.87;0.87;;;;;;;10.01;100.00;101449.03;4956699;28;20209;-73
2023/05/31 00:31:21;;;;;;;0.43;0.43;;;;;;;10.02;100.00;101461.59;4974113;28;20216;-75
2023/05/31 00:33:46;;;;;;;0.67;0.67;;;;;;;9.95;100.00;101458.34;4956791;28;20300;-74
2023/05/31 00:36:11;;;;;;;9.70;1.60;;;;;;;9.87;100.00;101458.97;4974397;28;20257;-75
2023/05/31 00:38:37;;;;;;;0.07;0.07;;;;;;;9.77;100.00;101454.34;4956587;28;20213;-75
2023/05/31 00:41:02;;;;;;;1.37;1.30;;;;;;;9.73;100.00;101451.38;4974052;28;20212;-75
2023/05/31 00:43:27;;;;;;;1.17;1.07;;;;;;;9.75;100.00;101451.09;4973912;28;20290;-75
2023/05/31 00:45:53;;;;;;;2.13;2.03;;;;;;;9.73;100.00;101453.28;4974057;28;20189;-75
2023/05/31 00:48:18;;;;;;;1.23;1.23;;;;;;;9.69;100.00;101449.47;4973594;28;20575;-75
2023/05/31 00:50:44;;;;;;;0.30;0.30;;;;;;;9.66;100.00;101461.78;4973919;28;20181;-75
2023/05/31 00:53:09;;;;;;;0.30;0.30;;;;;;;9.67;100.00;101460.69;4973684;28;20221;-75
2023/05/31 00:55:35;;;;;;;1.40;1.40;;;;;;;9.68;100.00;101462.31;4973733;28;20213;-73
2023/05/31 00:58:01;;;;;;;0.43;0.43;;;;;;;9.63;100.00;101465.06;4973390;28;20580;-75
2023/05/31 01:00:28;;;;;;;0.27;0.27;;;;;;;9.66;100.00;101469.13;4973793;28;20824;-75
2023/05/31 01:02:53;;;;;;;0.77;0.77;;;;;;;9.59;100.00;101474.09;4973598;28;20230;-72
2023/05/31 01:05:19;;;;;;;1.17;0.97;;;;;;;9.48;100.00;101471.41;4956180;28;20645;-74
2023/05/31 01:07:44;;;;;;;0.20;0.20;;;;;;;9.45;100.00;101473.88;4956062;28;20190;-75
2023/05/31 01:10:11;;;;;;;1.10;1.10;;;;;;;9.41;100.00;101470.09;4973587;28;20190;-74
2023/05/31 01:12:57;;;;;;;0.93;0.93;;;;;;;9.35;100.00;101465.72;4973418;28;20688;-75
2023/05/31 01:15:27;;;;;;;0.20;0.20;;;;;;;9.42;100.00;101471.72;4973326;28;20217;-75
2023/05/31 01:18:09;;;;;;;1.83;1.73;;;;;;;9.38;100.00;101468.69;4972865;28;20336;-75
2023/05/31 01:20:37;;;;;;;0.50;0.50;;;;;;;9.32;100.00;101467.09;4973381;28;20217;-75
2023/05/31 01:23:10;;;;;;;0.67;0.67;;;;;;;9.35;100.00;101465.72;4973284;28;20587;-74
2023/05/31 01:25:48;;;;;;;0.00;0.00;;;;;;;9.45;100.00;101461.06;4973215;28;20182;-75
2023/05/31 01:28:14;;;;;;;2.93;2.83;;;;;;;9.43;100.00;101468.72;4972663;28;20270;-74
2023/05/31 01:30:40;;;;;;;0.63;0.63;;;;;;;9.41;100.00;101470.91;4973073;28;20224;-74
2023/05/31 01:33:10;;;;;;;0.47;0.47;;;;;;;9.30;100.00;101474.75;4972835;28;20708;-74
2023/05/31 01:35:36;;;;;;;0.53;0.53;;;;;;;9.19;100.00;101465.78;4973091;28;20178;-75
2023/05/31 01:38:02;;;;;;;0.57;0.57;;;;;;;9.17;100.00;101478.88;4955161;28;20244;-74
2023/05/31 01:40:27;;;;;;;0.43;0.43;;;;;;;9.11;100.00;101466.34;4972525;28;20177;-74
2023/05/31 01:42:53;;;;;;;0.00;0.00;;;;;;;9.04;100.00;101473.16;4972882;28;20249;-75
2023/05/31 01:45:19;;;;;;;0.10;0.10;;;;;;;9.08;100.00;101474.25;4972893;28;20190;-74
2023/05/31 01:47:47;;;;;;;0.73;0.73;;;;;;;9.07;100.00;101473.44;4955235;28;20193;-75
2023/05/31 01:50:13;;;;;;;0.70;0.70;;;;;;;9.14;100.00;101475.88;4972860;28;20324;-75
2023/05/31 01:52:39;;;;;;;0.10;0.10;;;;;;;9.10;100.00;101478.31;4972619;28;20221;-75
2023/05/31 01:55:05;;;;;;;0.20;0.20;;;;;;;9.05;100.00;101472.91;4972734;28;20309;-75
2023/05/31 01:57:31;;;;;;;0.00;0.00;;;;;;;9.08;100.00;101479.69;4972184;28;20565;-74
2023/05/31 01:59:59;;;;;;;0.30;0.30;;;;;;;9.09;100.00;101468.50;4972726;28;20553;-75
2023/05/31 02:02:26;;;;;;;3.20;2.40;;;;;;;9.10;100.00;101472.06;4972395;28;20201;-75
2023/05/31 02:05:03;;;;;;;0.30;0.30;;;;;;;9.02;100.00;101464.47;4972634;28;20277;-75
2023/05/31 02:07:29;;;;;;;0.50;0.47;;;;;;;8.97;100.00;101464.44;4972112;28;20552;-77
2023/05/31 02:09:54;;;;;;;0.40;0.27;;;;;;;8.91;100.00;101461.75;4972891;28;20216;-75
2023/05/31 02:12:19;;;;;;;2.47;1.03;;;;;;;8.91;100.00;101461.75;4972154;28;20221;-75
2023/05/31 02:14:45;;;;;;;0.40;0.40;;;;;;;8.85;100.00;101468.31;4972506;28;20203;-75
2023/05/31 02:17:13;;;;;;;0.60;0.60;;;;;;;8.89;100.00;101457.66;4972298;28;20213;-74
2023/05/31 02:19:40;;;;;;;1.27;1.27;;;;;;;8.87;100.00;101459.84;4972050;28;20182;-75
2023/05/31 02:22:06;;;;;;;1.93;1.60;;;;;;;8.86;100.00;101456.31;4972227;28;20198;-75
2023/05/31 02:24:31;;;;;;;2.10;2.00;;;;;;;8.86;100.00;101461.75;4954642;28;20321;-75
2023/05/31 02:26:57;;;;;;;0.63;0.60;;;;;;;8.96;100.00;101466.34;4954777;28;20743;-75
2023/05/31 02:29:22;;;;;;;0.50;0.50;;;;;;;9.01;100.00;101460.91;4971893;28;20198;-75
2023/05/31 02:31:47;;;;;;;0.73;0.73;;;;;;;8.99;100.00;101463.09;4972079;28;20213;-75
2023/05/31 02:34:13;;;;;;;0.50;0.50;;;;;;;8.91;100.00;101464.47;4972175;28;20664;-73
2023/05/31 02:36:39;;;;;;;2.87;0.47;;;;;;;8.80;100.00;101462.84;4972063;28;20188;-72
2023/05/31 02:39:05;;;;;;;0.20;0.20;;;;;;;8.71;100.00;101469.94;4971725;28;20280;-73
2023/05/31 02:41:30;;;;;;;1.87;1.77;;;;;;;8.74;100.00;101465.84;4971826;28;20281;-75
2023/05/31 02:43:56;;;;;;;0.13;0.13;;;;;;;8.69;100.00;101457.69;4954607;28;20216;-75
2023/05/31 02:46:21;;;;;;;0.53;0.53;;;;;;;8.61;100.00;101459.88;4971946;28;20185;-75
2023/05/31 02:48:47;;;;;;;0.63;0.63;;;;;;;8.53;100.00;101456.84;4971798;28;20248;-75
2023/05/31 02:51:12;;;;;;;0.87;0.87;;;;;;;8.60;100.00;101454.69;4954373;28;20197;-75
2023/05/31 02:53:37;;;;;;;1.53;1.40;;;;;;;8.71;100.00;101453.59;4954420;28;20618;-75
2023/05/31 02:56:02;;;;;;;0.00;0.00;;;;;;;8.73;100.00;101456.06;4972064;28;20427;-75
2023/05/31 02:58:28;;;;;;;0.93;0.93;;;;;;;8.71;100.00;101442.72;4971364;28;20236;-75
2023/05/31 03:00:53;;;;;;;1.10;1.10;;;;;;;8.61;100.00;101443.53;4972189;28;20182;-75
2023/05/31 03:03:18;;;;;;;2.93;1.40;;;;;;;8.53;100.00;101448.69;4971702;28;20198;-75
2023/05/31 03:05:44;;;;;;;1.60;1.27;;;;;;;8.50;100.00;101444.59;4954508;28;20276;-75
2023/05/31 03:08:09;;;;;;;6.80;0.57;;;;;;;8.55;100.00;101443.81;4971305;28;20186;-75
2023/05/31 03:10:34;;;;;;;1.33;0.83;;;;;;;8.63;100.00;101440.53;4954175;28;20269;-74
2023/05/31 03:13:00;;;;;;;3.87;1.90;;;;;;;8.69;100.00;101435.91;4971633;28;20240;-75
2023/05/31 03:15:25;;;;;;;1.07;0.60;;;;;;;8.65;100.00;101446.50;4971813;28;20185;-75
2023/05/31 03:17:51;;;;;;;12.87;0.93;;;;;;;8.69;100.00;101449.53;4971270;28;20186;-74
2023/05/31 03:20:16;;;;;;;3.63;2.90;;;;;;;8.59;100.00;101451.16;4954349;28;20332;-75
2023/05/31 03:22:41;;;;;;;1.57;1.47;;;;;;;8.68;100.00;101450.59;4971590;28;20639;-75
2023/05/31 03:25:07;;;;;;;0.93;0.40;;;;;;;8.71;100.00;101469.94;4971503;28;20192;-75
2023/05/31 03:27:32;;;;;;;1.07;1.03;;;;;;;8.66;100.00;101461.75;4971171;28;20185;-75
2023/05/31 03:29:58;;;;;;;2.20;2.10;;;;;;;8.65;100.00;101468.31;4954390;28;20607;-75
2023/05/31 03:32:23;;;;;;;0.47;0.47;;;;;;;8.63;100.00;101471.31;4971213;28;20217;-75
2023/05/31 03:34:49;;;;;;;0.83;0.83;;;;;;;8.57;100.00;101468.88;4954206;28;20190;-75
2023/05/31 03:37:14;;;;;;;0.10;0.10;;;;;;;8.63;100.00;101468.56;4954093;28;20281;-75
2023/05/31 03:39:39;;;;;;;2.40;2.00;;;;;;;8.65;100.00;101471.03;4971175;28;20558;-75
2023/05/31 03:42:05;;;;;;;0.90;0.90;;;;;;;8.60;100.00;101468.31;4954187;28;20202;-75
2023/05/31 03:44:31;;;;;;;4.63;1.17;;;;;;;8.55;100.00;101460.97;4971433;28;20194;-75
2023/05/31 03:46:57;;;;;;;1.03;1.03;;;;;;;8.50;100.00;101466.41;4971424;28;20186;-75
2023/05/31 03:49:22;;;;;;;0.93;0.93;;;;;;;8.52;100.00;101472.38;4971124;28;20264;-73
2023/05/31 03:51:48;;;;;;;0.77;0.77;;;;;;;8.57;100.00;101477.84;4971219;28;20549;-75
2023/05/31 03:54:14;;;;;;;1.13;1.07;;;;;;;8.62;100.00;101471.59;4971233;28;20178;-75
2023/05/31 03:56:39;;;;;;;1.13;1.07;;;;;;;8.73;100.00;101475.94;4971330;28;20197;-75
2023/05/31 03:59:05;;;;;;;0.13;0.13;;;;;;;8.88;100.00;101464.22;4971125;28;20644;-75
2023/05/31 04:01:32;;;;;;;0.93;0.93;;;;;;;8.89;100.00;101466.66;4953982;28;20648;-75
2023/05/31 04:03:57;;;;;;;2.43;1.90;;;;;;;8.92;100.00;101457.09;4974923;28;20182;-75
2023/05/31 04:06:23;;;;;;;1.67;1.57;;;;;;;8.92;100.00;101459.84;4974604;28;20337;-75
2023/05/31 04:08:49;;;;;;;1.93;1.50;;;;;;;8.98;100.00;101463.38;4956833;28;20252;-74
2023/05/31 04:11:14;;;;;;;2.87;2.50;;;;;;;9.03;100.00;101466.09;4957212;28;20668;-75
2023/05/31 04:13:40;;;;;;;1.87;1.60;;;;;;;9.07;100.00;101465.25;4974627;28;20237;-75
2023/05/31 04:16:05;;;;;;;0.70;0.70;;;;;;;9.17;100.00;101464.41;4974641;28;20193;-73
2023/05/31 04:18:30;;;;;;;0.40;0.40;;;;;;;9.26;100.00;101462.78;4974079;28;20672;-75
2023/05/31 04:20:55;;;;;;;0.20;0.20;;;;;;;9.37;100.00;101464.34;4974461;28;20594;-75
2023/05/31 04:23:21;;;;;;;1.00;1.00;;;;;;;9.43;100.00;101459.72;4974214;28;20297;-75
2023/05/31 04:25:47;;;;;;;0.40;0.40;;;;;;;9.46;100.00;101459.97;4974459;28;20212;-75
2023/05/31 04:28:15;;;;;;;8.07;1.07;;;;;;;9.57;100.00;101454.47;4973863;28;20185;-76
2023/05/31 04:30:40;;;;;;;1.60;1.50;;;;;;;9.59;100.00;101468.66;4974452;28;20190;-75
2023/05/31 04:33:06;;;;;;;0.00;0.00;;;;;;;9.70;100.00;101462.06;4974535;28;20569;-76
2023/05/31 04:35:32;;;;;;;0.13;0.13;;;;;;;9.84;100.00;101458.44;4974218;28;20879;-75
2023/05/31 04:37:59;;;;;;;0.60;0.60;;;;;;;9.89;100.00;101454.84;4973681;28;20674;-75
2023/05/31 04:40:25;;;;;;;0.97;0.97;;;;;;;9.92;100.00;101459.72;4956823;28;20581;-75
2023/05/31 04:42:51;;;;;;;0.60;0.33;;;;;;;9.98;100.00;101460.50;4956701;28;20757;-75
2023/05/31 04:45:16;;;;;;;0.07;0.07;;;;;;;10.03;100.00;101457.75;4974061;28;20182;-73
2023/05/31 04:47:41;;;;;;;1.43;1.40;;;;;;;10.13;100.00;101465.91;4973547;28;20240;-75
2023/05/31 04:50:07;;;;;;;1.00;0.77;;;;;;;10.21;100.00;101461.72;4973977;28;20185;-75
2023/05/31 04:52:32;;;;;;;0.10;0.10;;;;;;;10.27;100.00;101466.94;4956276;28;20241;-76
2023/05/31 04:54:59;;;;;;;0.63;0.63;;;;;;;10.31;100.00;101462.53;4956650;28;20300;-75
2023/05/31 04:57:28;;;;;;;0.30;0.30;;;;;;;10.39;100.00;101455.63;4973394;28;20181;-73
2023/05/31 04:59:56;;;;;;;0.00;0.00;;;;;;;10.50;100.00;101468.09;4973676;28;20185;-75
2023/05/31 05:02:22;;;;;;;0.00;0.00;;;;;;;10.52;100.00;101474.09;4973627;28;20202;-76
2023/05/31 05:04:48;;;;;;;3.83;1.37;;;;;;;10.57;100.00;101467.78;4973656;28;20188;-76
2023/05/31 05:07:14;;;;;;;0.30;0.30;;;;;;;10.63;100.00;101472.91;4973455;28;20525;-73
2023/05/31 05:09:39;;;;;;;0.20;0.20;;;;;;;10.72;100.00;101476.66;4973386;28;20220;-76
2023/05/31 05:12:05;;;;;;;0.00;0.00;;;;;;;10.86;100.00;101476.00;4973354;28;20241;-75
2023/05/31 05:14:31;;;;;;;0.50;0.50;;;;;;;10.97;100.00;101472.88;4972373;28;20251;-76
2023/05/31 05:16:56;;;;;;;0.00;0.00;;;;;;;11.04;100.00;101480.75;4973346;28;20186;-76
2023/05/31 05:19:22;;;;;;;0.00;0.00;;;;;;;11.10;100.00;101473.28;4973062;28;20196;-74
2023/05/31 05:21:47;;;;;;;0.00;0.00;;;;;;;11.17;100.00;101482.81;4973171;28;20260;-76
2023/05/31 05:24:12;;;;;;;0.30;0.30;;;;;;;11.13;100.00;101481.72;4973322;28;20209;-76
2023/05/31 05:26:39;;;;;;;0.00;0.00;;;;;;;11.28;100.00;101484.31;4973288;28;20196;-76
2023/05/31 05:29:04;;;;;;;0.00;0.00;;;;;;;11.34;100.00;101490.53;4955718;28;20190;-74
2023/05/31 05:31:30;;;;;;;0.00;0.00;;;;;;;11.46;100.00;101493.69;4973409;28;20722;-76
2023/05/31 05:33:55;;;;;;;0.00;0.00;;;;;;;11.48;100.00;101483.28;4973344;28;20209;-77
2023/05/31 05:36:21;;;;;;;0.00;0.00;;;;;;;11.68;100.00;101490.41;4955948;28;20189;-77
2023/05/31 05:38:47;;;;;;;0.00;0.00;;;;;;;11.79;100.00;101489.22;4972956;28;20193;-76
2023/05/31 05:41:12;;;;;;;0.40;0.40;;;;;;;11.88;100.00;101489.38;4973114;28;20197;-77
2023/05/31 05:43:42;;;;;;;0.00;0.00;;;;;;;11.96;100.00;101494.19;4974265;28;20209;-77
2023/05/31 05:46:07;;;;;;;0.57;0.57;;;;;;;11.98;100.00;101491.13;4972761;28;20185;-76
2023/05/31 05:48:33;;;;;;;0.00;0.00;;;;;;;12.08;100.00;101489.09;4972584;28;20193;-77
2023/05/31 05:50:59;;;;;;;0.00;0.00;;;;;;;12.10;100.00;101488.78;4972887;28;20186;-76
2023/05/31 05:53:25;;;;;;;0.10;0.10;;;;;;;12.16;100.00;101490.34;4955291;28;20221;-76
2023/05/31 05:55:54;;;;;;;0.00;0.00;;;;;;;12.25;100.00;101483.06;4972847;28;20237;-76
2023/05/31 05:58:19;;;;;;;0.00;0.00;;;;;;;12.35;100.00;101495.81;4972262;28;20268;-76
2023/05/31 06:00:48;;;;;;;0.00;0.00;;;;;;;12.36;100.00;101490.03;4955418;28;20264;-77
2023/05/31 06:03:17;;;;;;;0.00;0.00;;;;;;;12.57;100.00;101492.44;4972454;28;20205;-76
2023/05/31 06:05:42;;;;;;;0.00;0.00;;;;;;;12.66;100.00;101488.75;4955479;28;20556;-77
2023/05/31 06:08:10;;;;;;;0.63;0.63;;;;;;;12.58;100.00;101494.88;4954724;28;20192;-74
2023/05/31 06:10:35;;;;;;;0.00;0.00;;;;;;;12.64;100.00;101487.41;4972248;28;20332;-75
2023/05/31 06:13:00;;;;;;;0.17;0.17;;;;;;;12.70;100.00;101488.94;4972277;28;20292;-76
2023/05/31 06:15:25;;;;;;;0.23;0.23;;;;;;;12.74;100.00;101495.47;4972286;28;20656;-76
2023/05/31 06:17:52;;;;;;;0.07;0.07;;;;;;;12.81;100.00;101487.66;4954462;28;20285;-76
2023/05/31 06:20:18;;;;;;;0.00;0.00;;;;;;;12.81;100.00;101483.00;4972174;28;20213;-76
2023/05/31 06:22:43;;;;;;;0.00;0.00;;;;;;;12.89;100.00;101483.44;4972356;28;20230;-76
2023/05/31 06:25:09;;;;;;;0.00;0.00;;;;;;;12.88;100.00;101490.84;4971949;28;20545;-76
2023/05/31 06:27:34;;;;;;;2.77;0.97;;;;;;;12.92;100.00;101491.88;4970574;28;20221;-76
2023/05/31 06:30:00;;;;;;;0.67;0.67;;;;;;;12.92;100.00;101480.06;4956253;28;20660;-76
2023/05/31 06:32:27;;;;;;;0.00;0.00;;;;;;;12.99;100.00;101492.28;4951815;28;20211;-77
2023/05/31 06:34:53;;;;;;;0.10;0.10;;;;;;;13.22;100.00;101482.28;4958069;28;20190;-76
2023/05/31 06:37:18;;;;;;;0.00;0.00;;;;;;;13.33;100.00;101485.66;4972290;28;20652;-77
2023/05/31 06:39:44;;;;;;;0.03;0.03;;;;;;;13.35;99.03;101476.00;4971796;28;20190;-76
2023/05/31 06:42:09;;;;;;;0.00;0.00;;;;;;;13.40;98.22;101480.56;4954747;28;20212;-75
2023/05/31 06:44:34;;;;;;;0.20;0.20;;;;;;;13.55;97.31;101484.94;4947136;28;20195;-76
2023/05/31 06:47:00;;;;;;;0.20;0.20;;;;;;;13.65;96.39;101482.81;4965355;28;20197;-76
2023/05/31 06:49:26;;;;;;;0.30;0.30;;;;;;;13.77;94.92;101475.97;4970094;28;20313;-76
2023/05/31 06:51:51;;;;;;;0.00;0.00;;;;;;;13.96;94.33;101476.66;4969882;28;20201;-73
2023/05/31 06:54:17;;;;;;;0.07;0.07;;;;;;;14.07;92.50;101475.31;4969264;28;20671;-75
2023/05/31 06:56:42;;;;;;;4.90;0.90;;;;;;;14.14;91.61;101475.69;4954398;28;20649;-75
2023/05/31 06:59:08;;;;;;;0.13;0.13;;;;;;;14.30;89.90;101468.69;4968654;28;20181;-76
2023/05/31 07:01:33;;;;;;;0.00;0.00;;;;;;;14.29;88.81;101469.81;4971444;28;20726;-76
2023/05/31 07:03:58;;;;;;;0.00;0.00;;;;;;;14.37;88.59;101467.47;4971590;28;20185;-75
2023/05/31 07:06:25;;;;;;;0.43;0.43;;;;;;;14.30;86.75;101465.13;4954459;28;20190;-75
2023/05/31 07:08:51;;;;;;;0.67;0.67;;;;;;;14.42;87.34;101464.59;4971509;28;20272;-74
2023/05/31 07:11:17;;;;;;;4.70;1.50;;;;;;;14.49;87.29;101465.81;4971481;28;20538;-76
2023/05/31 07:13:42;;;;;;;0.00;0.00;;;;;;;14.60;87.23;101469.09;4971796;28;20284;-76
2023/05/31 07:16:07;;;;;;;0.10;0.10;;;;;;;14.76;86.74;101472.31;4971733;28;20188;-76
2023/05/31 07:18:33;;;;;;;0.00;0.00;;;;;;;14.85;86.61;101470.41;4971748;28;20182;-76
2023/05/31 07:20:58;;;;;;;0.37;0.37;;;;;;;14.84;85.61;101472.34;4954772;28;20644;-76
2023/05/31 07:23:24;;;;;;;0.00;0.00;;;;;;;14.91;85.08;101469.16;4974620;28;20289;-80
2023/05/31 07:25:49;;;;;;;0.00;0.00;;;;;;;14.89;84.43;101460.38;4955825;28;20296;-77
2023/05/31 07:28:15;;;;;;;1.60;0.83;;;;;;;15.13;85.01;101469.09;4971676;28;20194;-76
2023/05/31 07:30:40;;;;;;;0.30;0.30;;;;;;;15.34;84.44;101463.84;4955084;28;20205;-81
2023/05/31 07:33:05;;;;;;;0.00;0.00;;;;;;;15.44;84.19;101457.22;4975106;28;20595;-80
2023/05/31 07:35:31;;;;;;;0.00;0.00;;;;;;;15.36;80.91;101449.75;4974701;28;20198;-81
2023/05/31 07:37:56;;;;;;;1.13;1.13;;;;;;;15.46;80.28;101442.00;4975578;28;20275;-76
2023/05/31 07:40:21;;;;;;;0.17;0.17;;;;;;;15.53;79.89;101446.25;4976302;28;20271;-76
2023/05/31 07:42:47;;;;;;;0.93;0.93;;;;;;;15.92;80.82;101450.91;4960118;28;20201;-77
2023/05/31 07:45:12;;;;;;;0.03;0.03;;;;;;;15.96;79.28;101446.34;4959805;28;20193;-75
2023/05/31 07:47:38;;;;;;;0.00;0.00;;;;;;;15.82;77.27;101440.19;4977650;28;20190;-75
2023/05/31 07:50:03;;;;;;;0.00;0.00;;;;;;;15.94;76.90;101438.41;4978777;28;20212;-77
2023/05/31 07:52:29;;;;;;;0.27;0.27;;;;;;;15.92;75.47;101426.09;4978150;28;20731;-77
2023/05/31 07:54:54;;;;;;;0.30;0.13;;;;;;;16.01;77.08;101427.69;4979214;28;20189;-75
2023/05/31 07:57:20;;;;;;;0.00;0.00;;;;;;;16.12;77.08;101427.38;4979130;28;20188;-77
2023/05/31 07:59:45;;;;;;;0.00;0.00;;;;;;;16.34;77.26;101436.28;4979990;28;20669;-76
2023/05/31 08:02:11;;;;;;;0.00;0.00;;;;;;;16.39;76.24;101423.47;4977233;28;20202;-76
2023/05/31 08:04:36;;;;;;;0.00;0.00;;;;;;;16.53;75.96;101427.66;4950914;28;20200;-77
2023/05/31 08:07:02;;;;;;;0.53;0.50;;;;;;;16.70;73.48;101415.00;4978751;28;20192;-77
2023/05/31 08:09:28;;;;;;;0.00;0.00;;;;;;;16.50;71.33;101409.03;4961334;28;20276;-77
2023/05/31 08:11:53;;;;;;;0.00;0.00;;;;;;;16.75;72.24;101417.56;4979041;28;20202;-77
2023/05/31 08:14:18;;;;;;;0.00;0.00;;;;;;;16.89;71.51;101413.47;4978191;28;20216;-78
2023/05/31 08:16:44;;;;;;;0.00;0.00;;;;;;;17.09;71.85;101414.72;4968808;28;20183;-77
2023/05/31 08:19:10;;;;;;;0.00;0.00;;;;;;;17.16;71.55;101412.22;4958445;28;20236;-77
2023/05/31 08:21:36;;;;;;;0.00;0.00;;;;;;;17.30;70.33;101398.19;4970144;28;20659;-77
2023/05/31 08:24:05;;;;;;;0.10;0.10;;;;;;;17.36;69.53;101399.63;4978790;28;20214;-78
2023/05/31 08:26:31;;;;;;;0.00;0.00;;;;;;;17.35;70.57;101405.47;4980847;28;20182;-78
2023/05/31 08:28:56;;;;;;;0.00;0.00;;;;;;;17.47;70.97;101400.84;4972361;28;20174;-78
2023/05/31 08:31:23;;;;;;;1.17;0.30;;;;;;;17.50;68.64;101388.31;4981492;28;20197;-77
2023/05/31 08:33:57;;;;;;;0.00;0.00;;;;;;;17.48;68.56;101393.38;4965958;28;20577;-78
2023/05/31 08:36:23;;;;;;;0.73;0.73;;;;;;;17.49;68.98;101392.22;4982144;28;20186;-77
2023/05/31 08:38:48;;;;;;;0.17;0.13;;;;;;;17.58;69.11;101386.66;4980296;28;20184;-77
2023/05/31 08:41:15;;;;;;;0.00;0.00;;;;;;;17.68;68.45;101387.09;4982364;28;20186;-78
2023/05/31 08:43:40;;;;;;;1.97;1.80;;;;;;;17.94;66.88;101377.75;4978435;28;20203;-78
2023/05/31 08:46:07;;;;;;;0.00;0.00;;;;;;;17.99;66.25;101377.59;4970400;28;20186;-77
2023/05/31 08:48:35;;;;;;;1.00;0.67;;;;;;;18.08;66.77;101386.59;4974452;28;20234;-78
2023/05/31 08:51:02;;;;;;;0.20;0.20;;;;;;;18.02;67.72;101382.44;4982375;28;20189;-77
2023/05/31 08:53:28;;;;;;;0.00;0.00;;;;;;;18.06;68.44;101386.13;4975134;28;20657;-78
2023/05/31 08:55:54;;;;;;;0.20;0.20;;;;;;;18.18;68.70;101374.31;4959915;29;20190;-77
2023/05/31 08:58:20;;;;;;;0.20;0.20;;;;;;;18.24;64.04;101357.19;4975308;28;20186;-78
2023/05/31 09:00:46;;;;;;;0.83;0.47;;;;;;;18.14;62.95;101347.34;4982901;28;20695;-78
2023/05/31 09:03:12;;;;;;;0.00;0.00;;;;;;;18.35;63.09;101358.34;4980711;28;20198;-75
2023/05/31 09:05:37;;;;;;;0.10;0.10;;;;;;;18.47;62.93;101342.94;4982027;28;20256;-76
2023/05/31 09:08:03;;;;;;;0.10;0.10;;;;;;;18.40;62.33;101341.53;4982097;28;20245;-78
2023/05/31 09:10:29;;;;;;;0.10;0.10;;;;;;;18.46;62.59;101346.84;4975022;28;20186;-78
2023/05/31 09:12:54;;;;;;;0.50;0.30;;;;;;;18.68;61.00;101335.41;4959450;28;20221;-75
2023/05/31 09:15:23;;;;;;;0.10;0.10;;;;;;;18.81;58.54;101325.16;4967062;28;20225;-75
2023/05/31 09:17:50;;;;;;;0.00;0.00;;;;;;;18.80;57.53;101321.53;4974854;28;20208;-75
2023/05/31 09:20:17;;;;;;;0.50;0.50;;;;;;;18.65;58.53;101311.94;4974562;28;20186;-77
2023/05/31 09:22:47;;;;;;;0.13;0.10;;;;;;;18.80;57.37;101313.22;4974578;28;20253;-76
2023/05/31 09:25:13;;;;;;;3.10;0.53;;;;;;;19.24;58.86;101327.28;4956802;28;20245;-77
2023/05/31 09:27:39;;;;;;;1.07;0.87;;;;;;;18.92;56.32;101304.94;4957400;28;20185;-75
2023/05/31 09:30:08;;;;;;;0.00;0.00;;;;;;;19.07;57.47;101316.47;4975343;28;20563;-76
2023/05/31 09:32:35;;;;;;;0.73;0.73;;;;;;;19.18;58.63;101320.38;4966348;28;20217;-76
2023/05/31 09:35:15;;;;;;;1.97;0.97;;;;;;;19.45;58.14;101327.97;4941396;28;20190;-76
2023/05/31 09:37:45;;;;;;;0.33;0.33;;;;;;;19.37;56.13;101317.81;4967384;28;20185;-75
2023/05/31 09:40:24;;;;;;;0.10;0.10;;;;;;;19.47;57.54;101316.53;4974888;28;20260;-75
2023/05/31 09:42:50;;;;;;;0.00;0.00;;;;;;;19.44;56.02;101309.72;4968147;28;20202;-76
2023/05/31 09:45:17;;;;;;;0.30;0.30;;;;;;;19.61;55.94;101309.47;4974225;28;20706;-77
2023/05/31 09:47:42;;;;;;;0.30;0.30;;;;;;;19.58;55.26;101307.41;4969801;28;20700;-76
2023/05/31 09:50:11;;;;;;;0.00;0.00;;;;;;;19.67;56.45;101306.44;4970179;28;20194;-76
2023/05/31 09:52:40;;;;;;;0.97;0.10;;;;;;;19.73;56.32;101313.34;4974225;28;20265;-75
2023/05/31 09:55:07;;;;;;;0.57;0.57;;;;;;;19.85;55.79;101305.00;4974242;28;20208;-77
2023/05/31 09:57:40;;;;;;;2.27;0.90;;;;;;;19.90;55.65;101304.72;4974024;28;20232;-76
2023/05/31 10:00:16;;;;;;;0.13;0.13;;;;;;;19.92;55.88;101300.44;4973907;28;20185;-76
2023/05/31 10:02:46;;;;;;;1.23;0.17;;;;;;;20.04;56.15;101309.88;4973588;28;20198;-78
2023/05/31 10:05:12;;;;;;;0.07;0.07;;;;;;;20.03;55.66;101300.75;4974381;28;20187;-76
2023/05/31 10:07:39;;;;;;;0.00;0.00;;;;;;;20.14;55.23;101301.84;4974110;28;20183;-75
2023/05/31 10:10:06;;;;;;;0.00;0.00;;;;;;;19.91;54.20;101290.50;4956917;28;20189;-76
2023/05/31 10:12:39;;;;;;;0.67;0.67;;;;;;;20.05;54.04;101283.75;4955704;28;20227;-76
2023/05/31 10:15:10;;;;;;;0.53;0.10;;;;;;;20.06;53.79;101283.38;4974072;28;20189;-77
2023/05/31 10:17:40;;;;;;;0.20;0.20;;;;;;;20.15;54.11;101297.09;4972953;28;20657;-77
2023/05/31 10:20:11;;;;;;;0.20;0.20;;;;;;;20.46;55.96;101294.38;4973259;28;20645;-76
2023/05/31 10:22:40;;;;;;;0.40;0.40;;;;;;;20.49;55.09;101298.41;4955787;28;20215;-75
2023/05/31 10:25:24;;;;;;;0.63;0.63;;;;;;;20.02;54.14;101290.00;4973475;28;20553;-76
2023/05/31 10:27:53;;;;;;;7.00;1.27;;;;;;;20.11;53.29;101277.59;4972699;28;20264;-77
2023/05/31 10:30:25;;;;;;;0.40;0.37;;;;;;;20.27;52.97;101283.16;4973280;28;20209;-78
2023/05/31 10:33:07;;;;;;;0.00;0.00;;;;;;;20.40;53.34;101286.66;4972819;28;20225;-76
2023/05/31 10:35:33;;;;;;;0.50;0.50;;;;;;;20.70;53.52;101275.94;4973779;28;20662;-77
2023/05/31 10:38:00;;;;;;;0.00;0.00;;;;;;;20.68;52.66;101273.50;4973248;28;20198;-76
2023/05/31 10:40:47;;;;;;;1.80;0.53;;;;;;;20.70;53.47;101285.06;4973650;28;20270;-77
2023/05/31 10:43:22;;;;;;;1.00;1.00;;;;;;;20.57;52.86;101264.13;4973418;28;20270;-77
2023/05/31 10:46:06;;;;;;;0.00;0.00;;;;;;;20.84;53.59;101269.94;4956329;28;20209;-76
2023/05/31 10:48:52;;;;;;;0.90;0.27;;;;;;;21.00;53.32;101263.16;4972922;28;20217;-76
2023/05/31 10:51:17;;;;;;;0.73;0.43;;;;;;;21.00;52.74;101262.34;4973353;28;20279;-77
2023/05/31 10:53:47;;;;;;;0.20;0.20;;;;;;;21.04;51.22;101249.34;4955957;28;20711;-78
2023/05/31 10:56:14;;;;;;;0.00;0.00;;;;;;;21.25;51.01;101240.69;4973530;28;20270;-76
2023/05/31 10:58:43;;;;;;;1.40;1.40;;;;;;;21.40;48.61;101237.03;4973099;28;20542;-75
2023/05/31 11:01:15;;;;;;;0.00;0.00;;;;;;;21.29;48.51;101236.84;4956047;28;20187;-77
2023/05/31 11:03:49;;;;;;;0.00;0.00;;;;;;;21.39;49.43;101238.22;4973514;28;20688;-77
2023/05/31 11:06:17;;;;;;;0.00;0.00;;;;;;;21.62;50.15;101239.09;4973116;28;20613;-75
2023/05/31 11:09:05;;;;;;;0.77;0.77;;;;;;;21.54;50.33;101233.75;4955880;28;20201;-75
2023/05/31 11:11:30;;;;;;;0.00;0.00;;;;;;;21.53;50.84;101234.91;4975270;28;20806;-78
2023/05/31 11:14:06;;;;;;;1.70;0.50;;;;;;;21.29;48.06;101214.59;4960040;28;20219;-77
2023/05/31 11:16:46;;;;;;;0.50;0.50;;;;;;;21.21;48.19;101215.56;4962526;28;20198;-78
2023/05/31 11:19:20;;;;;;;0.10;0.10;;;;;;;21.56;50.34;101226.66;4962422;28;20592;-78
2023/05/31 11:21:50;;;;;;;0.20;0.20;;;;;;;21.52;48.78;101211.06;4979112;28;20201;-78
2023/05/31 11:24:29;;;;;;;0.13;0.13;;;;;;;21.73;49.07;101210.69;4979454;28;20188;-77